Gassaway, WV (26624)

3:29 AM EST on February 13, 2016 (GMT -0500)
Grapevine Circle | | Change Station
CLOSE
Current Station
Personal Weather Station
Location: Gassaway, WV
Elevation: 1270 ft
Nearby Weather Stations

Elev 1270 ft 38.66 °N, 80.74 °W | Updated 17 seconds ago

Mostly Cloudy
Mostly Cloudy
17.2 °F
Feels Like 17 °F
N
3.0
Wind Variable Wind from WNW
Gusts 4.0 mph

Today
High -- | Low -- °F
--% Chance of Precip.
Yesterday
High -- | Low -- °F
Precip. -- in
Pressure 30.13 in
Visibility 9.0 miles
Clouds Scattered Clouds 2600 ft
Mostly Cloudy 3400 ft
Mostly Cloudy 4300 ft
Windchill 17 °F
Dew Point 8 °F
Humidity 68%
Rainfall 0.00 in
Snow Depth Not available.
7:17 AM 5:58 PM
Waxing Crescent, 28% visible
METAR KW22 130815Z AUTO 28014G22KT 250V310 9SM -SN SCT026 BKN034 BKN043 M11/M16 A3013 RMK AO2
Pressure 30.13 in
Visibility 9.0 miles
Clouds Scattered Clouds 2600 ft
Mostly Cloudy 3400 ft
Mostly Cloudy 4300 ft
Windchill 17 °F
Dew Point 8 °F
Humidity 68%
Rainfall 0.00 in
Snow Depth Not available.
7:17 AM 5:58 PM
Waxing Crescent, 28% visible
METAR KW22 130815Z AUTO 28014G22KT 250V310 9SM -SN SCT026 BKN034 BKN043 M11/M16 A3013 RMK AO2

10-Day Weather Forecast

Almanac

Astronomy

Feb. 13, 2016 Rise Set
Actual Time
Civil Twilight
Nautical Twilight
Astronomical Twilight
Moon
Length of Visible Light
Length of Day
Tomorrow will be .
, % of the Moon is Illuminated

Today's Extremes

State Highs State Lows

Community

WunderPhotos

Upload Photos

1,892,536 photos uploaded!

WunderBlog® & News

Nearby

Air Quality

  Air Quality AQ Index Pollutant
Not available.

Snow Depth

Station Depth Elevation

Earthquake Activity

City Distance Mag. Time & Date
Minimum magnitude displayed is 2.5.

Coastal Water Temperatures

Place Temperature

Stations

Nearby Weather Stations

Station Location Temp. Windchill Dew Point Humidity Wind Precip. Elev Updated Type
                   

Watches & Warnings

There are currently no watches in effect.